pastebin - collaborative debugging

pastebin is a collaborative debugging tool allowing you to share and modify code snippets while chatting on IRC, IM or a message board.

This site is developed to XHTML and CSS2 W3C standards. If you see this paragraph, your browser does not support those standards and you need to upgrade. Visit WaSP for a variety of options.

pastebin private pastebin - collaborative debugging tool What's a private pastebin?

Posted by fruitbat on Sat 11th Aug 23:08
download | new post

  1.        timestamp      temp_indoor         temp_outdoor    dewpoint   rel_humidity_indoor       rel_humidity_outdoor  wind_speed       wind_direction_degrees        wind_direction_text    wind_chill         rain_1h         rain_24h        rain_total     rel_pressure        tendency_forecast      location     solar_wh
  2.                      2012-08-03 19:40:27  21.6      17.6  12.1      64    70  0 135      SE    17.6        0       0      1697.46       1002.7 Rising Sunny     1    206097
  3.                      2012-08-03 19:35:20  21.6      17.6  12.1      63    70  0.3       157.5  SSE       17.6   0  0 1697.46  1002.7    Rising Sunny        1       206091
  4.                      2012-08-03 19:30:20  21.6      17.8  12.1      63    69  1.4       112.5  ESE       17.8   0  0 1697.46  1002.8    Rising Sunny        1       206084
  5.                      2012-08-03 19:25:25  21.6      17.9  12.2      63    69  0 67.5     ENE  17.9      0     0    1697.46     1002.8       Rising Sunny   1  206077
  6.                      2012-08-03 19:20:24  21.7      18    12.3        64      69    0.9 180      S     18   0  0 1697.46  1002.8    Rising Sunny        1       206069
  7.                      2012-08-03 19:15:13  21.7      18.1  12.3      64    69  1.8       157.5  SSE       17.7   0  0 1697.46  1002.8    Rising Sunny        1       206059
  8.                      2012-08-03 19:10:13  21.7      18.2  12.2      63    68  1.3       157.5  SSE       18.2   0  0 1697.46  1002.8    Rising Sunny        1       206050
  9.                      2012-08-03 19:05:18  21.6      18.3  12.3      61    68  1.4       202.5  SSW       18.3   0  0 1697.46  1002.8    Rising Sunny        1       206039
  10.                      2012-08-03 19:00:17  21.6      18.3  12        60      67    1.3 202.5    SSW 18.3     0    0   1697.46    1002.7      Rising Sunny  1 206028
  11.                      2012-08-03 18:55:22  21.7      18.3  12        60      67    1.9 135      SE    17.7        0       0      1697.46       1002.8 Rising Sunny     1    206015
  12.                      2012-08-03 18:50:31  21.7      18.4  11.9      61    66  1.3       157.5  SSE       18.4   0  0 1697.46  1002.7    Rising Sunny        1       205999
  13.                      2012-08-03 18:45:21  21.7      18.6  12.1      61    66  3.7       157.5  SSE       15.9   0  0 1697.46  1002.8    Rising Sunny        1       205982
  14.                      2012-08-03 18:40:20  21.8      18.7  12.2      61    66  1.7       180    S   18.7       0      0     1697.46      1002.8        Rising Sunny    1   205965
  15.                      2012-08-03 18:35:25  21.8      18.8  12.3      61    66  2.3       180    S   17.7       0      0     1697.46      1002.8        Rising Sunny    1   205949
  16.                      2012-08-03 18:30:23  21.8      18.9  12.4      61    66  2 180      S     18.2 0        0       1697.46        1003    Rising Sunny        1       205933
  17.                      2012-08-03 18:25:19  21.8      18.9  12.4      62    66  2.1       135    SE  18.1      0     0    1697.46     1003 Rising Sunny     1    205914
  18.                      2012-08-03 18:20:12  21.8      18.9  12.4      62    66  2.6       180    S   17.4       0      0     1697.46      1003  Rising Sunny      1     205895
  19.                      2012-08-03 18:15:18  21.7      18.9  12.4      62    66  2.6       247.5  WSW       17.4   0  0 1697.46  1002.9    Rising Sunny        1       205867
  20.                      2012-08-03 18:10:15  21.7      18.8  12.1      62    65  4 180      S     15.9 0        0       1697.46        1002.9  Rising Sunny      1     205836
  21.                      2012-08-03 18:05:22  21.6      18.9  12.1      61    65  2.9       157.5  SSE       17.3   0  0 1697.46  1002.9    Rising Sunny        1       205801
  22.                      2012-08-03 18:00:20  21.6      18.9  11.9      61    64  2.5       202.5  SSW       17.5   0  0 1697.46  1002.9    Rising Sunny        1       205780
  23.                      2012-08-03 17:55:22  21.6      19.1  11.9      60    63  1.7       180    S   19.1       0      0     1697.46      1002.9        Rising Sunny    1   205737
  24.                      2012-08-03 17:50:21  21.6      19.4  11.9      59    62  4.6       180    S   16.2       0      0     1697.46      1002.9        Rising Sunny    1   205715

Submit a correction or amendment below. (click here to make a fresh posting)
After submitting an amendment, you'll be able to view the differences between the old and new posts easily.

Use syntax highlighting

To highlight particular lines, prefix each line with @@


Remember my settings